Strona główna
METAR-TAF:

METAR-TAF

Lotnisko :

Nörvenich, Niemcy

Szerokość geograficzna: 50-50N, Długość geograficzna: 006-40E, wysokość: 118 m

Aktualna obserwacja pogody

Raport powstał 43 minut temu, godzina 20:20 UTC
Wiatr 5 kt od wschodnio-południowy wschód
Temperatura 15°C
Wilgotność 88%
Ciśnienie 1010 hPa
Widzialność 10 km lub więcej
Przerywane chmury na wysokości 3500 ft

METAR: ETNN 302020Z 11005KT 9999 BKN035 15/13 Q1010 BLU

czas: 23:03 (21:03 UTC)

Prognoza

Raport powstał 2 godziny i 3 minut temu, godzina 19:00 UTC
Prognoza ważna od 30 godzina 20 UTC do 01 godzina 05 UTC
Wiatr 7 kt od wschodnio-południowy wschód
Widzialność 10 km lub więcej
Rozproszone chmury na wysokości 5000 ft
Przerywane chmury na wysokości 14000 ft

TAF: ETNN 301900Z 3020/0105 12007KT 9999 NSW SCT050 BKN140 BY ETGL

Obserwacja i prognoza pogody dla ponad 4000 lotnisk (raport METAR i TAF).

Dostępne stacje oznaczono żółtymi i czerwonymi punktami na mapie.

Najedź kursorem aby zobaczyć nazwę stacji.

Kliknij aby zobaczyć obserwacje i prognozy pogody.

Aby zmienić mapę: kliknij na zielony przycisk z czarnym krzyżykiem, aby powiększyć; na zielony przycisk z myślnikiem, aby pomniejszyć; na zielone strzałki, aby przejść do map sąsiednich.


METAR-TAF: